Flight Track Log - Related Links

Times and Time Zones

All times are in EDT time to prevent confusion due to time zone crossing. See the N793DC flight status page for this flight to view local times or setup timezone preferences in your user account.

Time Position Orientation Groundspeed Altitude Reporting Facility
EDT Latitude Longitude Course Direction KTS MPH feet Rate Location/Type
Fri 03:34:06 PM 47.6542 -104.2972 242° Southwest 157 181 6,300  Level Salt Lake Center
Fri 03:35:08 PM 47.6342 -104.3531 247° West 156 180 8,400 1,839 Climbing Salt Lake Center
Fri 03:36:10 PM 47.6169 -104.4139 244° Southwest 161 185 10,100 1,500 Climbing Salt Lake Center
Fri 03:37:12 PM 47.5953 -104.4803 238° Southwest 173 199 11,500 1,548 Climbing Salt Lake Center
Fri 03:38:14 PM 47.5608 -104.5606 239° Southwest 186 214 13,300 1,452 Climbing Salt Lake Center
Fri 03:39:16 PM 47.5331 -104.6297 239° Southwest 192 221 14,500 1,104 Climbing Salt Lake Center
Fri 03:40:19 PM 47.5028 -104.7056 240° Southwest 202 232 15,600 1,056 Climbing Salt Lake Center
Fri 03:41:21 PM 47.4714 -104.7847 238° Southwest 213 245 16,700 1,016 Climbing Salt Lake Center
Fri 03:42:23 PM 47.4394 -104.8608 239° Southwest 217 250 17,700 581 Climbing Salt Lake Center
Fri 03:43:25 PM 47.4011 -104.9547 238° Southwest 220 253 17,900 97 Climbing Salt Lake Center
Fri 03:44:27 PM 47.3656 -105.0392 239° Southwest 231 266 17,900  Level Salt Lake Center
Fri 03:45:29 PM 47.3308 -105.1228 237° Southwest 237 273 17,900  Level Salt Lake Center
Fri 03:46:31 PM 47.2953 -105.2047 239° Southwest 238 274 17,900  Level Salt Lake Center
Fri 03:47:33 PM 47.2603 -105.2889 239° Southwest 240 276 17,900  Level Salt Lake Center
Fri 03:48:35 PM 47.2264 -105.3725 239° Southwest 239 275 17,900  Level Salt Lake Center
Fri 03:49:37 PM 47.1847 -105.4725 239° Southwest 240 276 17,900  Level Salt Lake Center
Fri 03:50:39 PM 47.1506 -105.5556 239° Southwest 239 275 17,900  Level Salt Lake Center
Fri 03:51:41 PM 47.1167 -105.6397 237° Southwest 239 275 17,900  Level Salt Lake Center
Fri 03:52:44 PM 47.0808 -105.7217 238° Southwest 239 275 17,900  Level Salt Lake Center
Fri 03:53:46 PM 47.0450 -105.8050 238° Southwest 240 276 17,900  Level Salt Lake Center
Fri 03:54:48 PM 47.0094 -105.8872 239° Southwest 240 276 17,900  Level Salt Lake Center
Fri 03:55:50 PM 46.9675 -105.9875 237° Southwest 241 277 17,900  Level Salt Lake Center
Fri 03:56:52 PM 46.9311 -106.0703 238° Southwest 242 278 17,900  Level Salt Lake Center
Fri 03:57:54 PM 46.8953 -106.1536 238° Southwest 242 278 17,900  Level Salt Lake Center
Fri 03:58:56 PM 46.8600 -106.2358 237° Southwest 241 277 17,900  Level Salt Lake Center
Fri 03:59:58 PM 46.8244 -106.3167 237° Southwest 239 275 17,900  Level Salt Lake Center
Fri 04:01:00 PM 46.7886 -106.3969 237° Southwest 238 274 17,900  Level Salt Lake Center
Fri 04:02:02 PM 46.7447 -106.4947 238° Southwest 239 275 17,900  Level Salt Lake Center
Fri 04:03:04 PM 46.7094 -106.5761 238° Southwest 239 275 17,900  Level Salt Lake Center
Fri 04:04:06 PM 46.6742 -106.6581 237° Southwest 239 275 17,900  Level Salt Lake Center
Fri 04:05:08 PM 46.6381 -106.7378 237° Southwest 238 274 17,900  Level Salt Lake Center
Fri 04:06:10 PM 46.5978 -106.8275 237° Southwest 237 273 17,900  Level Salt Lake Center
Fri 04:07:12 PM 46.5639 -106.9047 237° Southwest 237 273 17,900  Level Salt Lake Center
Fri 04:08:14 PM 46.5239 -106.9936 237° Southwest 236 272 17,900 32 Level Salt Lake Center
Fri 04:10:18 PM 46.4508 -107.1597 236° Southwest 234 269 18,000 32 Climbing Salt Lake Center
Fri 04:11:20 PM 46.4153 -107.2356 237° Southwest 236 272 18,000  Level Salt Lake Center
Fri 04:12:22 PM 46.3753 -107.3244 234° Southwest 237 273 18,000 -49 Level Salt Lake Center
Fri 04:13:23 PM 46.3386 -107.3964 237° Southwest 235 270 17,900 -585 Descending Salt Lake Center
Fri 04:14:25 PM 46.2981 -107.4864 237° Southwest 238 274 16,800 -1,065 Descending Salt Lake Center
Fri 04:15:27 PM 46.2606 -107.5686 236° Southwest 244 281 15,700 -1,065 Descending Salt Lake Center
Fri 04:16:29 PM 46.2186 -107.6592 237° Southwest 250 288 14,600 -1,065 Descending Salt Lake Center
Fri 04:17:31 PM 46.1814 -107.7428 235° Southwest 251 289 13,500 -774 Descending Salt Lake Center
Fri 04:18:33 PM 46.1428 -107.8225 230° Southwest 231 266 13,000 -242 Descending Salt Lake Center
Fri 04:19:35 PM 46.1056 -107.8867 228° Southwest 211 243 13,000 -387 Level Salt Lake Center
Fri 04:20:37 PM 46.0642 -107.9531 241° Southwest 209 241 12,200 -1,210 Descending Salt Lake Center
Fri 04:21:39 PM 46.0347 -108.0292 242° Southwest 236 272 10,500 -1,597 Descending Salt Lake Center
Fri 04:22:41 PM 46.0011 -108.1217 246° West 246 283 8,900 -1,210 Descending Salt Lake Center
Fri 04:23:43 PM 45.9742 -108.2075 243° Southwest 241 277 8,000 -968 Descending Salt Lake Center
Fri 04:24:45 PM 45.9431 -108.2950 240° Southwest 231 266 6,900 -1,016 Descending Salt Lake Center
Fri 04:25:47 PM 45.9122 -108.3722 241° Southwest 227 261 5,900 -823 Descending Salt Lake Center
Fri 04:26:49 PM 45.8797 -108.4564 242° Southwest 226 260 5,200 -341 Descending Salt Lake Center
Fri 04:27:50 PM 45.8542 -108.5264 242° Southwest 206 237 5,200 -341 Level Salt Lake Center
Fri 04:28:52 PM 45.8342 -108.5797 154° Southeast 151 174 4,500 -677 Descending Salt Lake Center
Fri 04:29:54 PM 45.8086 -108.5622 154° Southeast 115 132 3,800 -677 Descending Salt Lake Center

Login

Don't have an account? Register now (free) for customized features, flight alerts, and more!